Time;durP1;ratioP1;P1;durP2;ratioP2;P2;SDS_P1;SDS_P2;PMS_P1;PMS_P2;Temp;Humidity;BMP_temperature;BMP_pressure;BME280_temperature;BME280_humidity;BME280_pressure;Samples;Min_cycle;Max_cycle;Signal;HPM_P1;HPM_P2
2021/11/03 00:00:48;;;;;;;7.28;4.38;;;7.20;78.20;;;6.24;65.12;93929.34;4925578;29;20610;-81
2021/11/03 00:03:16;;;;;;;4.82;4.13;;;7.20;78.40;;;6.24;65.05;93926.75;4930865;28;20203;-82
2021/11/03 00:05:46;;;;;;;4.65;4.15;;;7.10;78.40;;;6.24;65.08;93924.16;4941974;28;20203;-82
2021/11/03 00:08:18;;;;;;;4.53;3.95;;;7.10;78.40;;;6.24;65.35;93924.16;4924243;29;20745;-81
2021/11/03 00:10:48;;;;;;;4.68;4.07;;;7.10;78.40;;;6.20;64.56;93921.13;4924385;28;20259;-81
2021/11/03 00:13:19;;;;;;;4.30;3.83;;;7.10;78.40;;;6.20;64.93;93922.91;4924285;29;20207;-82
2021/11/03 00:15:47;;;;;;;4.68;4.05;;;7.10;78.40;;;6.13;65.08;93915.06;4924104;29;20196;-82
2021/11/03 00:18:15;;;;;;;5.22;4.30;;;7.10;78.40;;;6.16;65.19;93927.69;4954163;28;20203;-81
2021/11/03 00:20:43;;;;;;;4.70;4.10;;;7.00;79.10;;;6.13;65.24;93922.88;4943337;28;20203;-82
2021/11/03 00:23:10;;;;;;;4.63;3.97;;;7.00;78.30;;;6.09;65.05;93924.22;4941643;28;20372;-82
2021/11/03 00:25:40;;;;;;;4.22;3.83;;;7.00;78.30;;;6.07;65.23;93915.81;4942812;28;20202;-82
2021/11/03 00:28:08;;;;;;;4.90;3.83;;;7.00;78.40;;;6.06;65.28;93911.59;4943210;28;20206;-82
2021/11/03 00:30:36;;;;;;;4.47;3.90;;;7.00;78.60;;;6.00;65.31;93904.53;4942663;28;20234;-82
2021/11/03 00:33:03;;;;;;;4.57;3.72;;;6.90;78.50;;;6.04;65.43;93909.19;4954164;28;20227;-80
2021/11/03 00:35:32;;;;;;;3.97;3.58;;;6.90;78.50;;;5.97;65.36;93897.88;4924742;29;20254;-82
2021/11/03 00:37:59;;;;;;;4.22;3.83;;;7.00;78.60;;;6.00;65.33;93907.94;4923771;29;20240;-82
2021/11/03 00:40:26;;;;;;;5.38;3.42;;;6.90;78.60;;;5.99;65.69;93908.91;4923703;29;20203;-83
2021/11/03 00:42:54;;;;;;;4.00;3.60;;;6.90;78.60;;;5.97;65.31;93905.69;4924231;29;20223;-82
2021/11/03 00:45:22;;;;;;;4.32;3.63;;;6.80;78.50;;;5.97;65.44;93899.66;4923614;29;20281;-82
2021/11/03 00:47:51;;;;;;;4.03;3.55;;;6.90;78.60;;;5.96;65.25;93895.44;4938880;29;20227;-82
2021/11/03 00:50:20;;;;;;;4.47;3.75;;;6.80;78.60;;;5.95;65.54;93896.47;4923437;29;20227;-83
2021/11/03 00:52:48;;;;;;;4.07;3.67;;;6.80;78.70;;;5.92;65.34;93890.63;4929765;28;20222;-83
2021/11/03 00:55:27;;;;;;;3.80;3.45;;;6.80;78.70;;;5.87;65.14;93893.00;4927078;28;20673;-81
2021/11/03 00:57:54;;;;;;;4.60;3.35;;;6.80;78.60;;;5.87;65.34;93895.59;4924058;29;20230;-82
2021/11/03 01:00:22;;;;;;;4.07;3.67;;;6.80;78.60;;;5.85;65.43;93899.38;4923514;29;20214;-82
2021/11/03 01:02:50;;;;;;;4.57;3.65;;;6.80;78.60;;;5.85;65.58;93889.78;4923167;29;20226;-83
2021/11/03 01:05:22;;;;;;;4.30;3.90;;;6.80;78.70;;;5.82;65.44;93891.94;4925116;29;20210;-83
2021/11/03 01:07:50;;;;;;;4.55;3.67;;;6.70;78.60;;;5.78;65.48;93881.09;4923447;29;20215;-82
2021/11/03 01:10:19;;;;;;;3.75;3.35;;;6.70;78.60;;;5.74;64.94;93885.88;4939018;29;20303;-82
2021/11/03 01:12:46;;;;;;;3.83;3.50;;;6.70;78.50;;;5.67;65.42;93887.63;4938888;29;20298;-82
2021/11/03 01:15:19;;;;;;;3.63;3.30;;;6.70;78.30;;;5.61;65.45;93883.16;4926561;28;20314;-81
2021/11/03 01:17:54;;;;;;;4.15;3.28;;;6.60;78.40;;;5.54;65.23;93888.31;4942813;28;20596;-82
2021/11/03 01:20:24;;;;;;;3.58;3.28;;;6.60;78.30;;;5.44;64.98;93888.63;4942676;28;20238;-82
2021/11/03 01:22:53;;;;;;;3.30;2.78;;;6.60;78.20;;;5.38;64.92;93889.38;4958004;28;20763;-82
2021/11/03 01:25:26;;;;;;;3.15;2.85;;;6.50;78.20;;;5.33;65.08;93886.50;4973635;28;20195;-81
2021/11/03 01:27:53;;;;;;;3.35;3.05;;;6.40;78.20;;;5.29;65.31;93893.06;4958052;28;20242;-81
2021/11/03 01:30:23;;;;;;;4.30;3.22;;;6.40;78.20;;;5.25;65.51;93897.03;4942027;28;20237;-82
2021/11/03 01:32:53;;;;;;;4.15;3.75;;;6.30;78.30;;;5.23;65.77;93899.00;4941818;28;20222;-82
2021/11/03 01:35:22;;;;;;;3.60;3.30;;;6.20;78.30;;;5.18;65.69;93893.56;4929775;29;20199;-81
2021/11/03 01:37:51;;;;;;;3.47;3.17;;;6.20;78.40;;;5.09;65.35;93890.22;4922808;29;20225;-81
2021/11/03 01:40:23;;;;;;;4.80;3.47;;;6.20;78.40;;;5.11;65.71;93896.06;4922808;29;20204;-82
2021/11/03 01:42:52;;;;;;;4.55;3.67;;;6.10;78.50;;;5.07;65.46;93887.03;4935902;28;20313;-82
2021/11/03 01:45:23;;;;;;;4.60;4.15;;;6.10;78.50;;;5.09;65.45;93882.44;4955547;28;20199;-82
2021/11/03 01:47:57;;;;;;;5.78;4.28;;;6.10;78.70;;;5.10;65.68;93882.28;4942443;28;20237;-81
2021/11/03 01:50:48;;;;;;;4.95;4.35;;;6.10;78.70;;;5.08;65.78;93889.44;4941559;28;20222;-82
2021/11/03 01:53:27;;;;;;;6.25;4.35;;;6.10;79.20;;;5.15;66.11;93888.72;4940859;28;20262;-82
2021/11/03 01:56:02;;;;;;;5.43;4.68;;;6.00;79.20;;;5.16;65.83;93878.13;4941465;28;20640;-82
2021/11/03 01:58:59;;;;;;;5.18;4.68;;;6.00;79.10;;;5.15;65.76;93879.13;4941568;28;20226;-81
2021/11/03 02:01:28;;;;;;;5.40;4.53;;;6.10;79.50;;;5.18;66.10;93876.16;4941342;28;20214;-82
2021/11/03 02:03:56;;;;;;;6.55;4.43;;;6.10;79.10;;;5.21;65.91;93878.41;4939430;28;20203;-81
2021/11/03 02:06:27;;;;;;;5.32;4.50;;;6.10;79.10;;;5.21;65.92;93874.97;4958211;28;20236;-82
2021/11/03 02:08:55;;;;;;;5.25;4.47;;;6.10;79.10;;;5.23;65.72;93867.81;4941324;28;20202;-81
2021/11/03 02:11:27;;;;;;;4.97;4.13;;;6.10;79.10;;;5.22;65.99;93866.97;4941318;28;20301;-81
2021/11/03 02:13:57;;;;;;;5.97;4.20;;;6.10;79.20;;;5.21;66.09;93864.56;4940516;28;20294;-82
2021/11/03 02:16:27;;;;;;;4.78;4.03;;;6.10;79.20;;;5.20;65.85;93862.97;4973085;28;20305;-81
2021/11/03 02:18:56;;;;;;;4.68;3.85;;;6.10;79.30;;;5.17;65.77;93856.34;4973360;28;20195;-81
2021/11/03 02:21:33;;;;;;;7.75;4.22;;;6.10;79.10;;;5.15;65.65;93850.53;4957015;28;20652;-81
2021/11/03 02:24:15;;;;;;;4.60;4.13;;;6.10;79.30;;;5.04;65.47;93841.44;4935763;28;20206;-81
2021/11/03 02:26:47;;;;;;;5.05;4.28;;;6.00;79.20;;;5.05;65.29;93850.03;4941333;28;20234;-82
2021/11/03 02:29:20;;;;;;;4.75;3.92;;;6.00;78.90;;;4.98;65.23;93844.75;4972972;28;20205;-82
2021/11/03 02:31:53;;;;;;;4.35;3.55;;;6.00;78.80;;;4.92;65.73;93843.69;4935172;29;20630;-82
2021/11/03 02:34:28;;;;;;;4.35;3.95;;;5.90;78.60;;;4.79;65.02;93833.94;4922248;29;20211;-81
2021/11/03 02:37:29;;;;;;;3.70;3.40;;;5.90;78.60;;;4.73;65.33;93847.66;4931332;28;20754;-81
2021/11/03 02:40:33;;;;;;;5.22;3.28;;;5.80;78.60;;;4.65;65.38;93837.38;4972077;28;20216;-81
2021/11/03 02:43:21;;;;;;;5.55;3.65;;;5.80;78.80;;;4.57;65.58;93840.09;4938819;28;20631;-81
2021/11/03 02:45:55;;;;;;;5.75;3.58;;;5.70;78.40;;;4.51;65.76;93844.22;4914844;28;20645;-81
2021/11/03 02:48:27;;;;;;;4.03;3.50;;;5.60;78.60;;;4.49;65.98;93851.38;4930698;28;20348;-81
2021/11/03 02:51:05;;;;;;;5.35;3.78;;;5.60;78.50;;;4.44;65.71;93851.94;4939828;28;20221;-81
2021/11/03 02:53:47;;;;;;;3.88;3.15;;;5.50;78.60;;;4.41;65.81;93847.09;4930489;28;20541;-82
2021/11/03 02:56:20;;;;;;;3.58;3.28;;;5.50;78.70;;;4.38;65.83;93844.03;4924097;28;20218;-81
2021/11/03 02:58:48;;;;;;;4.75;3.80;;;5.50;78.60;;;4.35;66.03;93850.41;4929213;28;20196;-80
2021/11/03 03:01:28;;;;;;;5.10;3.60;;;5.40;78.60;;;4.30;65.52;93850.94;4954942;28;20223;-81
2021/11/03 03:03:56;;;;;;;4.32;3.47;;;5.40;78.70;;;4.28;66.07;93850.28;4954405;28;20217;-80
2021/11/03 03:06:28;;;;;;;4.80;3.95;;;5.30;78.60;;;4.29;66.23;93853.72;4921795;28;20226;-81
2021/11/03 03:08:58;;;;;;;5.38;3.95;;;5.30;78.90;;;4.31;66.19;93859.53;4942432;28;20226;-80
2021/11/03 03:11:31;;;;;;;6.63;4.55;;;5.30;79.10;;;4.35;66.53;93858.19;4953415;28;20231;-81
2021/11/03 03:13:59;;;;;;;8.50;4.90;;;5.30;79.20;;;4.39;66.50;93859.44;4935547;28;20743;-80
2021/11/03 03:16:27;;;;;;;7.47;4.82;;;5.30;79.20;;;4.42;66.20;93855.66;4949384;28;20211;-80
2021/11/03 03:18:55;;;;;;;6.63;4.95;;;5.30;79.30;;;4.40;66.13;93850.66;4932962;28;20199;-80
2021/11/03 03:21:27;;;;;;;7.88;5.30;;;5.40;79.30;;;4.43;66.07;93855.50;4931186;28;20242;-80
2021/11/03 03:23:58;;;;;;;8.13;5.07;;;5.30;79.20;;;4.42;65.86;93848.69;4938979;28;20665;-80
2021/11/03 03:26:25;;;;;;;6.50;4.70;;;5.30;79.10;;;4.34;65.54;93838.41;4934774;28;20215;-80
2021/11/03 03:28:55;;;;;;;6.20;4.90;;;5.40;79.10;;;4.38;65.66;93850.06;4942437;28;20290;-80
2021/11/03 03:31:25;;;;;;;7.32;5.25;;;5.40;79.10;;;4.36;65.80;93848.59;4938334;29;20235;-80
2021/11/03 03:33:57;;;;;;;7.03;5.38;;;5.30;79.10;;;4.30;65.99;93850.13;4927750;28;20202;-81
2021/11/03 03:36:25;;;;;;;7.82;5.40;;;5.30;79.10;;;4.28;66.08;93850.28;4954180;29;20315;-82
2021/11/03 03:38:54;;;;;;;7.32;5.13;;;5.30;79.00;;;4.26;65.88;93852.28;4924545;29;20195;-81
2021/11/03 03:41:27;;;;;;;7.57;5.00;;;5.30;79.00;;;4.21;65.61;93846.84;4940581;28;20223;-81
2021/11/03 03:43:55;;;;;;;6.40;4.85;;;5.20;78.90;;;4.19;65.67;93853.16;4974793;28;20197;-80
2021/11/03 03:46:23;;;;;;;6.65;5.20;;;5.20;78.80;;;4.16;65.83;93852.56;4924799;29;20218;-81
2021/11/03 03:48:52;;;;;;;6.55;5.15;;;5.20;78.90;;;4.12;65.58;93840.09;4924773;29;20207;-81
2021/11/03 03:51:21;;;;;;;7.18;5.00;;;5.10;79.00;;;4.10;66.12;93837.69;4924384;29;20350;-82
2021/11/03 03:53:50;;;;;;;8.80;4.93;;;5.10;79.00;;;4.08;66.10;93829.28;4925369;29;20717;-81
2021/11/03 03:56:21;;;;;;;7.35;4.75;;;5.10;78.90;;;4.06;66.14;93828.63;4923370;29;20298;-81
2021/11/03 03:58:51;;;;;;;7.68;4.60;;;5.10;78.90;;;4.03;66.24;93835.97;4942787;28;20663;-82
2021/11/03 04:01:24;;;;;;;7.22;5.40;;;5.00;78.90;;;3.98;65.94;93834.72;4943749;28;20219;-81
2021/11/03 04:03:54;;;;;;;6.18;4.70;;;5.00;78.90;;;3.90;65.99;93826.22;4928734;28;20625;-80
2021/11/03 04:06:23;;;;;;;7.18;5.10;;;5.00;78.80;;;3.91;66.17;93828.63;4934161;29;20230;-81
2021/11/03 04:08:51;;;;;;;9.02;5.50;;;5.00;78.80;;;3.90;66.25;93829.63;4924396;29;20203;-82
2021/11/03 04:11:19;;;;;;;9.02;6.30;;;4.90;78.90;;;3.93;66.30;93818.06;4924783;28;20227;-82
2021/11/03 04:13:47;;;;;;;9.98;6.00;;;4.90;79.10;;;3.93;66.31;93816.31;4924210;29;20580;-81
2021/11/03 04:16:14;;;;;;;8.15;5.40;;;4.90;79.30;;;3.98;66.49;93819.16;4923805;29;20223;-81
2021/11/03 04:18:41;;;;;;;7.10;5.30;;;4.90;79.40;;;4.00;66.49;93808.59;4924245;29;20271;-80
2021/11/03 04:21:09;;;;;;;6.43;4.97;;;4.90;79.50;;;4.00;66.57;93811.19;4924710;29;20227;-80
2021/11/03 04:23:37;;;;;;;6.38;4.75;;;5.00;79.60;;;4.06;66.24;93813.06;4924213;29;20199;-80
2021/11/03 04:26:20;;;;;;;7.88;5.47;;;4.90;79.40;;;4.03;65.96;93816.03;4924050;29;20248;-81
2021/11/03 04:28:47;;;;;;;7.15;4.95;;;5.00;79.30;;;3.95;65.89;93814.31;4923804;29;20203;-81
2021/11/03 04:31:16;;;;;;;7.50;4.57;;;5.00;79.10;;;3.91;65.55;93815.66;4927918;28;20250;-79
2021/11/03 04:33:43;;;;;;;5.72;4.35;;;4.90;78.70;;;3.81;65.48;93821.13;4943091;28;20208;-81
2021/11/03 04:36:12;;;;;;;5.53;4.00;;;4.90;78.60;;;3.71;65.51;93819.75;4942468;28;20218;-81
2021/11/03 04:38:39;;;;;;;7.93;4.88;;;4.80;78.40;;;3.64;65.40;93820.47;4942601;28;20199;-81
2021/11/03 04:41:06;;;;;;;6.22;4.53;;;4.80;78.40;;;3.56;65.87;93817.94;4925529;29;20239;-81
2021/11/03 04:43:34;;;;;;;5.50;4.43;;;4.70;78.40;;;3.47;66.04;93813.81;4923668;29;20291;-81
2021/11/03 04:46:02;;;;;;;7.88;4.60;;;4.70;78.30;;;3.44;65.93;93814.97;4923736;29;20216;-81
2021/11/03 04:48:29;;;;;;;6.55;4.60;;;4.60;78.30;;;3.36;65.85;93813.25;4923481;29;20700;-81
2021/11/03 04:50:56;;;;;;;6.30;4.95;;;4.60;78.40;;;3.35;65.85;93810.84;4931416;28;20238;-80
2021/11/03 04:53:24;;;;;;;5.63;4.00;;;4.50;79.20;;;3.28;65.89;93807.31;4942555;28;20246;-83
2021/11/03 04:55:55;;;;;;;7.13;4.78;;;4.40;78.50;;;3.29;65.98;93806.34;4974552;28;20217;-81
2021/11/03 04:58:22;;;;;;;8.13;5.28;;;4.40;78.50;;;3.27;66.02;93808.28;4973455;28;20326;-81
2021/11/03 05:00:52;;;;;;;7.47;5.82;;;4.40;78.70;;;3.25;66.59;93805.06;4942688;28;20206;-81
2021/11/03 05:03:20;;;;;;;9.02;5.90;;;4.30;78.80;;;3.22;66.18;93797.66;4959303;28;20253;-80
2021/11/03 05:05:50;;;;;;;9.05;6.30;;;4.30;78.90;;;3.25;66.80;93799.88;4933424;29;20207;-81
2021/11/03 05:08:18;;;;;;;8.85;6.03;;;4.30;79.10;;;3.29;66.69;93794.19;4954718;29;20291;-81
2021/11/03 05:10:45;;;;;;;10.93;6.68;;;4.40;79.20;;;3.31;66.14;93799.22;4923547;29;20266;-81
2021/11/03 05:13:12;;;;;;;10.48;6.35;;;4.30;79.60;;;3.29;66.80;93794.19;4923490;29;20199;-81
2021/11/03 05:15:40;;;;;;;8.65;5.68;;;4.30;79.20;;;3.35;66.32;93810.84;4923349;29;20255;-82
2021/11/03 05:18:08;;;;;;;8.73;5.97;;;4.30;79.10;;;3.30;66.33;93798.38;4923240;29;20207;-82
2021/11/03 05:20:35;;;;;;;8.55;6.40;;;4.30;79.00;;;3.26;66.09;93806.69;4923720;28;20197;-80
2021/11/03 05:23:04;;;;;;;8.85;6.28;;;4.30;79.00;;;3.26;66.09;93801.50;4938902;28;20570;-82
2021/11/03 05:25:31;;;;;;;8.55;6.80;;;4.30;79.00;;;3.24;66.26;93793.13;4942190;28;20664;-82
2021/11/03 05:27:59;;;;;;;9.82;7.25;;;4.30;79.00;;;3.23;66.43;93786.31;4957786;28;20631;-81
2021/11/03 05:30:28;;;;;;;11.75;7.50;;;4.30;79.00;;;3.22;66.51;93779.53;4940026;28;20321;-81
2021/11/03 05:32:57;;;;;;;10.35;7.22;;;4.30;79.20;;;3.18;66.59;93769.50;4941791;28;20222;-82
2021/11/03 05:35:25;;;;;;;9.65;7.15;;;4.30;79.20;;;3.15;66.82;93766.44;4941834;28;20245;-81
2021/11/03 05:37:53;;;;;;;11.02;7.53;;;4.20;79.20;;;3.25;66.56;93771.38;4957514;28;20237;-82
2021/11/03 05:40:25;;;;;;;9.55;6.50;;;4.20;79.30;;;3.29;66.69;93764.88;4936675;28;20266;-83
2021/11/03 05:42:54;;;;;;;9.85;6.57;;;4.20;79.50;;;3.26;66.77;93754.84;4924841;29;20627;-81
2021/11/03 05:45:22;;;;;;;9.45;6.63;;;4.20;79.40;;;3.25;66.38;93754.06;4922438;29;20231;-82
2021/11/03 05:47:49;;;;;;;10.98;6.57;;;4.30;79.50;;;3.33;66.61;93764.38;4922240;29;20266;-82
2021/11/03 05:50:26;;;;;;;8.95;5.95;;;4.30;79.50;;;3.34;66.38;93765.16;4923245;29;20758;-82
2021/11/03 05:52:54;;;;;;;8.98;6.32;;;4.30;79.60;;;3.33;66.43;93760.94;4925573;28;20281;-81
2021/11/03 05:55:22;;;;;;;9.40;6.18;;;4.30;79.50;;;3.33;66.56;93758.34;4940987;28;20198;-81
2021/11/03 05:57:56;;;;;;;8.27;5.88;;;4.30;79.40;;;3.29;66.53;93759.69;4974046;28;20561;-81
2021/11/03 06:00:33;;;;;;;7.70;5.63;;;4.30;79.40;;;3.31;66.64;93766.31;4935722;29;20234;-82
2021/11/03 06:03:01;;;;;;;8.88;5.80;;;4.40;79.70;;;3.23;66.57;93756.00;4938049;29;20215;-82
2021/11/03 06:05:30;;;;;;;7.88;5.57;;;4.30;79.40;;;3.30;66.35;93761.31;4922577;29;20234;-82
2021/11/03 06:08:05;;;;;;;8.90;5.72;;;4.30;79.40;;;3.31;66.40;93761.13;4922510;29;20242;-82
2021/11/03 06:10:38;;;;;;;8.40;5.55;;;4.30;79.50;;;3.27;66.50;93756.47;4922438;28;20219;-82
2021/11/03 06:13:08;;;;;;;7.82;6.22;;;4.30;79.60;;;3.31;66.76;93771.50;4940448;28;20189;-82
2021/11/03 06:15:37;;;;;;;7.75;5.80;;;4.30;79.60;;;3.32;66.61;93770.53;4956531;28;20630;-83
2021/11/03 06:18:06;;;;;;;9.45;5.95;;;4.30;79.60;;;3.32;66.81;93761.94;4957515;28;20203;-82
2021/11/03 06:20:34;;;;;;;8.20;5.85;;;4.30;79.70;;;3.40;66.70;93777.41;4940539;28;20297;-82
2021/11/03 06:23:01;;;;;;;8.23;6.38;;;4.30;79.80;;;3.41;66.59;93779.03;4939201;28;20250;-81
2021/11/03 06:25:29;;;;;;;8.68;5.80;;;4.30;79.80;;;3.46;66.64;93775.91;4960534;28;20305;-82
2021/11/03 06:27:58;;;;;;;7.72;5.88;;;4.30;79.80;;;3.47;66.53;93767.94;4940326;28;20222;-80
2021/11/03 06:30:30;;;;;;;8.70;5.97;;;4.40;79.90;;;3.46;67.11;93766.34;4962153;28;20289;-80
2021/11/03 06:32:57;;;;;;;8.73;5.90;;;4.40;80.00;;;3.51;66.52;93763.22;4968607;28;20265;-79
2021/11/03 06:35:26;;;;;;;20.45;6.30;;;4.40;79.90;;;3.53;66.56;93769.03;4941342;28;20281;-80
2021/11/03 06:37:54;;;;;;;21.50;6.43;;;4.40;79.80;;;3.48;66.70;93761.78;4951033;28;20770;-80
2021/11/03 06:40:24;;;;;;;24.35;6.75;;;4.40;79.80;;;3.56;66.59;93771.28;4972329;28;20195;-81
2021/11/03 06:42:53;;;;;;;16.75;6.57;;;4.40;79.80;;;3.57;66.54;93772.09;4943946;28;20697;-79
2021/11/03 06:45:24;;;;;;;17.80;6.97;;;4.40;79.80;;;3.58;66.57;93777.09;4959988;28;20547;-80
2021/11/03 06:47:52;;;;;;;15.05;6.65;;;4.40;79.80;;;3.60;66.27;93782.09;4967623;28;20222;-81
2021/11/03 06:50:35;;;;;;;19.35;6.20;;;4.50;79.90;;;3.61;66.60;93768.16;4956442;28;20206;-81
2021/11/03 06:53:05;;;;;;;22.55;6.95;;;4.50;80.30;;;3.64;66.80;93778.97;4941099;28;20245;-80
2021/11/03 06:55:33;;;;;;;21.05;7.20;;;4.50;80.00;;;3.68;66.68;93775.03;4956612;28;20291;-81
2021/11/03 06:58:03;;;;;;;26.10;6.43;;;4.50;80.00;;;3.73;66.82;93776.31;4940474;28;20716;-80
2021/11/03 07:00:44;;;;;;;24.52;6.50;;;4.50;80.00;;;3.76;66.64;93770.75;4967829;28;20205;-80
2021/11/03 07:03:12;;;;;;;25.17;6.70;;;4.60;80.30;;;3.78;66.89;93771.38;4975915;28;20230;-82
2021/11/03 07:05:43;;;;;;;20.83;6.20;;;4.60;80.10;;;3.81;66.63;93766.66;4969718;28;20199;-82
2021/11/03 07:08:11;;;;;;;24.17;6.45;;;4.60;80.10;;;3.84;66.63;93763.72;4964737;28;20285;-81
2021/11/03 07:10:45;;;;;;;20.83;6.13;;;4.60;80.10;;;3.83;66.68;93759.50;4963038;28;20655;-82
2021/11/03 07:13:13;;;;;;;9.05;5.07;;;4.70;80.20;;;3.95;66.64;93769.41;4961225;28;20191;-80
2021/11/03 07:15:41;;;;;;;7.22;5.10;;;4.70;80.20;;;3.98;66.64;93759.50;4954095;28;20202;-81
2021/11/03 07:18:10;;;;;;;6.95;5.22;;;4.80;80.30;;;4.02;66.94;93762.53;4935437;28;20207;-81
2021/11/03 07:20:41;;;;;;;6.38;4.78;;;4.80;80.40;;;4.12;66.88;93757.88;4925960;28;20281;-80
2021/11/03 07:23:19;;;;;;;6.93;5.03;;;4.80;80.50;;;4.20;66.91;93751.78;4954094;28;20207;-80
2021/11/03 07:25:51;;;;;;;7.10;5.03;;;4.90;80.80;;;4.30;67.29;93757.50;4935535;29;20203;-81
2021/11/03 07:28:19;;;;;;;6.97;5.18;;;4.90;80.80;;;4.39;66.98;93750.41;4950949;29;20263;-82
2021/11/03 07:30:46;;;;;;;6.38;5.38;;;5.00;80.80;;;4.49;67.10;93750.09;4951357;29;20246;-81
2021/11/03 07:33:14;;;;;;;8.43;6.00;;;5.10;80.90;;;4.60;66.97;93754.84;4936893;29;20242;-82
2021/11/03 07:35:43;;;;;;;8.55;6.60;;;5.10;80.90;;;4.72;67.15;93752.53;4936879;29;20701;-80
2021/11/03 07:38:12;;;;;;;7.55;5.47;;;5.20;81.00;;;4.83;66.98;93747.88;4937103;29;20200;-81
2021/11/03 07:40:51;;;;;;;6.85;5.47;;;5.30;81.00;;;4.91;66.77;93745.94;4936713;29;20255;-81
2021/11/03 07:43:21;;;;;;;7.97;5.50;;;5.40;81.20;;;4.99;66.79;93733.81;4952933;29;20216;-82
2021/11/03 07:45:52;;;;;;;7.45;5.72;;;5.50;81.10;;;5.14;67.14;93750.16;4921638;29;20270;-81
2021/11/03 07:48:23;;;;;;;7.50;5.93;;;5.60;81.20;;;5.25;66.87;93736.66;4952625;29;20246;-81
2021/11/03 07:50:56;;;;;;;7.05;5.65;;;5.70;81.30;;;5.34;66.93;93739.91;4953623;28;20282;-81
2021/11/03 07:53:24;;;;;;;7.30;5.72;;;5.80;81.30;;;5.44;66.91;93736.97;4924771;29;20214;-81
2021/11/03 07:55:58;;;;;;;6.63;5.53;;;5.80;81.50;;;5.57;66.59;93741.47;4956068;29;20208;-81
2021/11/03 07:58:28;;;;;;;9.20;6.20;;;5.90;81.40;;;5.65;66.46;93738.75;4956311;29;20195;-82
2021/11/03 08:00:57;;;;;;;7.40;5.60;;;6.00;81.50;;;5.73;66.61;93740.38;4956515;29;20405;-81
2021/11/03 08:03:26;;;;;;;6.57;5.57;;;6.10;81.40;;;5.81;66.61;93734.22;4956024;29;20203;-82
2021/11/03 08:05:54;;;;;;;6.68;5.65;;;6.20;81.30;;;5.87;66.96;93730.84;4955388;29;20237;-81
2021/11/03 08:08:25;;;;;;;6.95;5.45;;;6.30;81.30;;;5.92;66.49;93736.28;4940006;29;20214;-82
2021/11/03 08:10:54;;;;;;;5.55;4.93;;;6.30;81.10;;;5.99;66.51;93736.34;4956068;29;20267;-81
2021/11/03 08:13:27;;;;;;;6.35;4.88;;;6.40;81.00;;;6.03;66.53;93738.38;4955826;29;20713;-81
2021/11/03 08:15:58;;;;;;;5.05;4.55;;;6.50;81.00;;;6.05;66.21;93739.00;4940029;29;20270;-82
2021/11/03 08:18:31;;;;;;;6.68;5.22;;;6.50;80.80;;;6.08;66.50;93736.00;4940017;29;20209;-81
2021/11/03 08:20:58;;;;;;;8.60;6.32;;;6.60;80.90;;;6.08;66.56;93725.59;4939597;29;20255;-81
2021/11/03 08:23:26;;;;;;;9.32;6.00;;;6.60;80.90;;;6.17;66.49;93722.81;4955599;29;20192;-81
2021/11/03 08:25:53;;;;;;;14.35;8.07;;;6.70;80.90;;;6.29;66.73;93734.28;4955281;29;20306;-82
2021/11/03 08:28:21;;;;;;;37.70;19.23;;;6.70;81.00;;;6.34;66.54;93721.47;4955215;29;20203;-82
2021/11/03 08:30:52;;;;;;;26.88;15.77;;;6.80;81.10;;;6.45;66.54;93725.31;4939287;29;20195;-82
2021/11/03 08:33:40;;;;;;;20.88;12.70;;;6.90;81.20;;;6.53;66.87;93717.34;4924130;29;20211;-81
2021/11/03 08:36:09;;;;;;;14.45;8.82;;;7.00;81.40;;;6.61;66.72;93716.34;4955420;29;20286;-81
2021/11/03 08:38:54;;;;;;;10.35;7.32;;;7.00;81.20;;;6.68;66.77;93718.97;4955726;29;20219;-81
2021/11/03 08:41:21;;;;;;;10.82;7.38;;;7.10;81.30;;;6.69;66.72;93708.34;4939582;29;20246;-81
2021/11/03 08:43:50;;;;;;;11.13;7.20;;;7.10;81.20;;;6.81;66.65;93708.59;4939328;29;20654;-81
2021/11/03 08:46:18;;;;;;;17.05;7.22;;;7.20;82.00;;;6.89;66.50;93707.59;4955307;29;20207;-81
2021/11/03 08:48:55;;;;;;;13.07;6.78;;;7.30;81.20;;;6.96;66.92;93703.19;4924344;29;20250;-82
2021/11/03 08:51:24;;;;;;;13.05;6.55;;;7.30;81.30;;;7.02;66.38;93699.78;4955048;29;20229;-82
2021/11/03 08:53:55;;;;;;;28.90;5.63;;;7.50;81.30;;;7.04;66.46;93692.56;4955374;29;20199;-81
2021/11/03 08:56:24;;;;;;;34.08;6.25;;;7.50;81.20;;;7.15;66.72;93693.78;4955065;29;20215;-82
2021/11/03 08:58:51;;;;;;;10.45;5.85;;;7.50;81.20;;;7.19;66.84;93692.38;4907917;29;20196;-82
2021/11/03 09:01:21;;;;;;;14.52;6.25;;;7.60;81.20;;;7.31;66.78;93687.34;4954926;29;20268;-82
2021/11/03 09:03:50;;;;;;;10.75;6.10;;;7.70;81.30;;;7.38;66.66;93695.16;4938325;29;20210;-81
2021/11/03 09:06:17;;;;;;;8.52;6.22;;;7.80;81.30;;;7.50;66.63;93692.75;4954873;29;20227;-81
2021/11/03 09:08:47;;;;;;;13.15;6.72;;;7.80;81.30;;;7.57;66.71;93692.72;4955180;29;20195;-81
2021/11/03 09:11:15;;;;;;;10.38;6.28;;;7.90;81.40;;;7.69;66.83;93704.97;4938490;29;20269;-81
2021/11/03 09:13:42;;;;;;;9.73;6.32;;;8.00;81.40;;;7.78;66.13;93715.19;4938859;29;20324;-82
2021/11/03 09:16:12;;;;;;;9.55;6.30;;;8.10;81.30;;;7.84;66.49;93717.78;4954950;29;20247;-81
2021/11/03 09:18:39;;;;;;;6.72;5.82;;;8.20;81.30;;;7.89;66.34;93719.78;4922961;29;20207;-81
2021/11/03 09:21:08;;;;;;;7.07;6.05;;;8.30;81.30;;;7.96;66.23;93717.94;4954507;29;20227;-81
2021/11/03 09:23:42;;;;;;;7.78;6.47;;;8.30;81.20;;;7.98;66.03;93691.63;4954809;29;20199;-81
2021/11/03 09:26:10;;;;;;;8.13;6.72;;;8.40;81.20;;;8.09;66.31;93685.78;4954222;29;20219;-82
2021/11/03 09:28:37;;;;;;;7.55;6.30;;;8.50;81.20;;;8.15;66.37;93681.53;4954338;29;20211;-81
2021/11/03 09:31:06;;;;;;;6.85;5.65;;;8.60;81.20;;;8.25;66.33;93679.28;4954276;29;20211;-81
2021/11/03 09:33:36;;;;;;;6.80;6.03;;;8.60;81.20;;;8.30;66.42;93674.25;4954560;29;20230;-82
2021/11/03 09:36:07;;;;;;;7.30;6.40;;;8.60;81.20;;;8.41;66.29;93669.34;4954379;29;20223;-82
2021/11/03 09:38:35;;;;;;;7.38;6.60;;;8.80;81.00;;;8.41;66.04;93667.56;4954538;29;20271;-82
2021/11/03 09:41:11;;;;;;;8.15;6.55;;;8.80;80.90;;;8.44;65.90;93676.78;4954079;29;20728;-82
2021/11/03 09:43:55;;;;;;;9.98;7.15;;;8.90;80.50;;;8.44;65.65;93682.00;4954198;29;20203;-82
2021/11/03 09:46:27;;;;;;;8.05;7.22;;;8.90;80.50;;;8.46;65.93;93685.22;4953946;29;20255;-82
2021/11/03 09:49:21;;;;;;;8.10;7.30;;;8.90;80.40;;;8.46;65.96;93686.06;4975194;28;20228;-82
2021/11/03 09:52:00;;;;;;;9.25;7.93;;;8.90;80.20;;;8.46;65.59;93682.63;4948673;28;20250;-82
2021/11/03 09:54:36;;;;;;;8.70;7.80;;;9.00;80.20;;;8.40;65.72;93681.63;4954367;29;20283;-82
2021/11/03 09:57:30;;;;;;;8.93;7.20;;;9.10;80.10;;;8.46;65.69;93700.91;4954028;28;20259;-81
2021/11/03 10:00:03;;;;;;;8.75;7.35;;;9.00;80.00;;;8.47;65.78;93697.28;4922531;29;20599;-82
2021/11/03 10:02:54;;;;;;;8.27;7.28;;;9.00;80.20;;;8.52;66.02;93701.91;4938997;28;20270;-82
2021/11/03 10:05:57;;;;;;;10.77;8.70;;;9.20;81.10;;;8.54;65.92;93697.28;4973496;28;20191;-83
2021/11/03 10:08:30;;;;;;;61.13;31.20;;;9.10;80.10;;;8.59;66.08;93679.97;4952680;28;20690;-82
2021/11/03 10:11:03;;;;;;;73.47;55.67;;;9.20;80.30;;;8.67;65.35;93684.13;4943462;28;20198;-82
2021/11/03 10:13:37;;;;;;;33.83;28.27;;;9.10;80.30;;;8.69;65.67;93682.13;4935963;28;20238;-83
2021/11/03 10:16:26;;;;;;;17.35;15.48;;;9.20;80.20;;;8.66;65.71;93685.13;4906548;29;20219;-82
2021/11/03 10:19:06;;;;;;;12.02;10.15;;;9.20;80.00;;;8.80;65.67;93693.69;4956065;28;20252;-81
2021/11/03 10:21:45;;;;;;;12.05;10.75;;;9.30;80.20;;;8.90;65.67;93698.47;4948960;28;20242;-81
2021/11/03 10:24:12;;;;;;;11.68;8.98;;;9.30;81.00;;;8.96;65.69;93701.03;4954367;28;20217;-83
2021/11/03 10:26:53;;;;;;;9.25;8.07;;;9.30;80.40;;;9.00;65.48;93690.16;4991069;28;20654;-82
2021/11/03 10:29:31;;;;;;;9.38;7.88;;;9.40;80.10;;;9.05;65.33;93680.66;4971205;28;20249;-82
2021/11/03 10:32:19;;;;;;;9.88;8.15;;;9.40;80.10;;;9.05;65.39;93690.31;4968019;28;20223;-82
2021/11/03 10:35:00;;;;;;;10.93;8.65;;;9.40;80.10;;;9.03;65.27;93677.44;4941825;28;20211;-82
2021/11/03 10:37:38;;;;;;;8.57;7.45;;;9.50;79.90;;;9.12;65.13;93688.47;4927884;28;20229;-83
2021/11/03 10:40:27;;;;;;;9.13;7.97;;;9.60;79.90;;;9.19;65.06;93691.84;4940714;28;20194;-81
2021/11/03 10:43:02;;;;;;;9.52;7.40;;;9.60;79.90;;;9.23;65.13;93685.16;4944903;28;20234;-82
2021/11/03 10:45:36;;;;;;;8.77;7.38;;;9.70;79.90;;;9.26;64.80;93683.91;4940996;28;20194;-82
2021/11/03 10:48:27;;;;;;;8.43;6.68;;;9.70;79.80;;;9.28;64.71;93681.91;4940844;28;20266;-83